createdAt,value
2018-05-18T00:00:23.478Z,99.90
2018-05-18T00:02:50.937Z,99.90
2018-05-18T00:05:18.660Z,99.90
2018-05-18T00:07:47.004Z,99.90
2018-05-18T00:10:15.221Z,99.90
2018-05-18T00:12:42.673Z,99.90
2018-05-18T00:15:13.349Z,99.90
2018-05-18T00:17:40.797Z,99.90
2018-05-18T00:20:08.250Z,99.90
2018-05-18T00:22:35.700Z,99.90
2018-05-18T00:25:04.092Z,99.90
2018-05-18T00:27:31.540Z,99.90
2018-05-18T00:29:58.993Z,99.90
2018-05-18T00:32:26.443Z,99.90
2018-05-18T00:34:53.904Z,99.90
2018-05-18T00:37:21.364Z,99.90
2018-05-18T00:39:49.466Z,99.90
2018-05-18T00:42:16.887Z,99.90
2018-05-18T00:44:44.336Z,99.90
2018-05-18T00:47:11.795Z,99.90
2018-05-18T00:49:39.548Z,99.90
2018-05-18T00:52:06.999Z,99.90
2018-05-18T00:54:34.455Z,99.90
2018-05-18T00:57:01.934Z,99.90
2018-05-18T00:59:29.386Z,99.90
2018-05-18T01:01:56.832Z,99.90
2018-05-18T01:04:24.385Z,99.90
2018-05-18T01:06:52.149Z,99.90
2018-05-18T01:09:20.249Z,99.90
2018-05-18T01:11:49.220Z,99.90
2018-05-18T01:14:16.685Z,99.90
2018-05-18T01:16:44.132Z,99.90
2018-05-18T01:19:11.588Z,99.90
2018-05-18T01:21:39.044Z,99.90
2018-05-18T01:24:06.501Z,99.90
2018-05-18T01:26:33.965Z,99.90
2018-05-18T01:29:01.416Z,99.90
2018-05-18T01:31:28.874Z,99.90
2018-05-18T01:33:56.652Z,99.90
2018-05-18T01:36:24.707Z,99.90
2018-05-18T01:38:52.169Z,99.90
2018-05-18T01:41:19.648Z,99.90
2018-05-18T01:43:47.644Z,99.90
2018-05-18T01:46:15.230Z,99.90
2018-05-18T01:48:42.684Z,99.90
2018-05-18T01:51:10.900Z,99.90
2018-05-18T01:53:38.368Z,99.90
2018-05-18T01:56:05.825Z,99.90
2018-05-18T01:58:34.047Z,99.90
2018-05-18T02:01:01.501Z,99.90
2018-05-18T02:03:29.729Z,99.90
2018-05-18T02:05:57.179Z,99.90
2018-05-18T02:08:25.188Z,99.90
2018-05-18T02:10:53.404Z,99.90
2018-05-18T02:13:20.865Z,99.90
2018-05-18T02:15:48.418Z,99.90
2018-05-18T02:18:16.283Z,99.90
2018-05-18T02:20:43.743Z,99.90
2018-05-18T02:23:11.201Z,99.90
2018-05-18T02:25:39.100Z,99.90
2018-05-18T02:28:09.011Z,99.90
2018-05-18T02:30:36.468Z,99.90
2018-05-18T02:33:03.924Z,99.90
2018-05-18T02:35:31.388Z,99.90
2018-05-18T02:37:58.835Z,99.90
2018-05-18T02:40:26.280Z,99.90
2018-05-18T02:42:53.748Z,99.90
2018-05-18T02:45:22.025Z,99.90
2018-05-18T02:47:49.485Z,99.90
2018-05-18T02:50:16.934Z,99.90
2018-05-18T02:52:46.841Z,99.90
2018-05-18T02:55:14.541Z,99.90
2018-05-18T02:57:41.984Z,99.90
2018-05-18T03:00:09.464Z,99.90
2018-05-18T03:02:39.465Z,99.90
2018-05-18T03:05:06.921Z,99.90
2018-05-18T03:07:34.385Z,99.90
2018-05-18T03:10:01.837Z,99.90
2018-05-18T03:12:29.291Z,99.90
2018-05-18T03:14:56.740Z,99.90
2018-05-18T03:17:24.199Z,99.90
2018-05-18T03:19:51.644Z,99.90
2018-05-18T03:22:19.095Z,99.90
2018-05-18T03:24:47.104Z,99.90
2018-05-18T03:27:16.332Z,99.90
2018-05-18T03:29:43.784Z,99.90
2018-05-18T03:32:11.245Z,99.90
2018-05-18T03:34:38.708Z,99.90
2018-05-18T03:37:06.183Z,99.90
2018-05-18T03:39:33.628Z,99.90
2018-05-18T03:42:01.089Z,99.90
2018-05-18T03:44:29.094Z,99.90
2018-05-18T03:46:56.552Z,99.90
2018-05-18T03:49:24.620Z,99.90
2018-05-18T03:51:52.476Z,99.90
2018-05-18T03:54:19.931Z,99.90
2018-05-18T03:56:50.955Z,99.90
2018-05-18T03:59:18.409Z,99.90
2018-05-18T04:01:58.416Z,99.90
2018-05-18T04:04:38.203Z,99.90
2018-05-18T04:07:17.723Z,99.90
2018-05-18T04:09:45.203Z,99.90
2018-05-18T04:12:12.668Z,99.90
2018-05-18T04:14:40.491Z,99.90
2018-05-18T04:17:09.784Z,99.90
2018-05-18T04:19:38.456Z,99.90
2018-05-18T04:22:06.702Z,99.90
2018-05-18T04:24:34.158Z,99.90
2018-05-18T04:27:03.480Z,99.90
2018-05-18T04:29:30.944Z,99.90
2018-05-18T04:31:58.409Z,99.90
2018-05-18T04:34:26.507Z,99.90
2018-05-18T04:36:54.735Z,99.90
2018-05-18T04:39:22.189Z,99.90
2018-05-18T04:41:49.668Z,99.90
2018-05-18T04:44:17.128Z,99.90
2018-05-18T04:46:44.585Z,99.90
2018-05-18T04:49:12.044Z,99.90
2018-05-18T04:51:39.917Z,99.90
2018-05-18T04:54:08.281Z,99.90
2018-05-18T04:56:35.782Z,99.90
2018-05-18T04:59:03.685Z,99.90
2018-05-18T05:01:31.186Z,99.90
2018-05-18T05:04:00.264Z,99.90
2018-05-18T05:06:27.713Z,99.90
2018-05-18T05:08:55.251Z,99.90
2018-05-18T05:11:22.738Z,99.90
2018-05-18T05:13:50.192Z,99.90
2018-05-18T05:16:17.649Z,99.90
2018-05-18T05:18:45.532Z,99.90
2018-05-18T05:21:16.223Z,99.90
2018-05-18T05:23:44.378Z,99.90
2018-05-18T05:26:11.771Z,99.90
2018-05-18T05:28:39.238Z,99.90
2018-05-18T05:31:07.167Z,99.90
2018-05-18T05:33:35.004Z,99.90
2018-05-18T05:36:03.267Z,99.90
2018-05-18T05:38:31.491Z,99.90
2018-05-18T05:40:58.949Z,99.90
2018-05-18T05:43:26.975Z,99.90
2018-05-18T05:45:54.462Z,99.90
2018-05-18T05:48:21.912Z,99.90
2018-05-18T05:50:49.368Z,99.90
2018-05-18T05:53:17.255Z,99.90
2018-05-18T05:55:44.712Z,99.90
2018-05-18T05:58:12.175Z,99.90
2018-05-18T06:00:39.645Z,99.90
2018-05-18T06:03:07.104Z,99.90
2018-05-18T06:05:34.570Z,99.90
2018-05-18T06:08:02.090Z,99.90
2018-05-18T06:10:30.535Z,99.90
2018-05-18T06:12:58.009Z,99.90
2018-05-18T06:15:25.472Z,99.90
2018-05-18T06:17:52.976Z,99.90
2018-05-18T06:20:20.430Z,99.90
2018-05-18T06:22:47.880Z,99.90
2018-05-18T06:25:16.965Z,99.90
2018-05-18T06:27:44.343Z,99.90
2018-05-18T06:30:11.799Z,99.90
2018-05-18T06:32:39.287Z,99.90
2018-05-18T06:35:06.799Z,99.90
2018-05-18T06:37:34.213Z,99.90
2018-05-18T06:40:01.697Z,99.90
2018-05-18T06:42:29.177Z,99.90
2018-05-18T06:44:56.667Z,99.90
2018-05-18T06:47:24.906Z,99.90
2018-05-18T06:49:54.878Z,99.90
2018-05-18T06:52:22.404Z,99.90
2018-05-18T06:54:50.431Z,99.90
2018-05-18T06:57:17.884Z,99.90
2018-05-18T06:59:45.765Z,99.90
2018-05-18T07:02:13.243Z,99.90
2018-05-18T07:04:40.695Z,99.90
2018-05-18T07:07:08.166Z,99.90
2018-05-18T07:09:36.408Z,99.90
2018-05-18T07:12:03.873Z,99.90
2018-05-18T07:14:31.330Z,99.90
2018-05-18T07:16:59.368Z,99.90
2018-05-18T07:19:27.286Z,99.90
2018-05-18T07:21:54.783Z,99.90
2018-05-18T07:24:22.283Z,99.90
2018-05-18T07:26:49.748Z,99.90
2018-05-18T07:29:17.295Z,99.90
2018-05-18T07:31:44.876Z,99.90
2018-05-18T07:34:13.153Z,99.90
2018-05-18T07:36:40.608Z,99.90
2018-05-18T07:39:08.163Z,99.90
2018-05-18T07:41:37.351Z,99.90
2018-05-18T07:44:04.817Z,99.90
2018-05-18T07:46:33.186Z,99.90
2018-05-18T07:49:00.682Z,99.90
2018-05-18T07:51:28.925Z,99.90
2018-05-18T07:53:56.480Z,99.90
2018-05-18T07:56:25.787Z,99.90
2018-05-18T07:58:53.267Z,99.90
2018-05-18T08:01:21.517Z,96.80
2018-05-18T08:03:50.012Z,96.80
2018-05-18T08:06:17.577Z,96.80
2018-05-18T08:08:45.622Z,96.60
2018-05-18T08:11:13.071Z,97.40
2018-05-18T08:13:40.546Z,96.70
2018-05-18T08:16:08.587Z,96.00
2018-05-18T08:18:36.688Z,96.20
2018-05-18T08:21:04.144Z,97.10
2018-05-18T08:23:40.361Z,97.40
2018-05-18T08:26:09.830Z,97.90
2018-05-18T08:28:49.867Z,98.10
2018-05-18T08:31:17.424Z,98.10
2018-05-18T08:33:46.813Z,95.40
2018-05-18T08:36:14.311Z,95.40
2018-05-18T08:38:42.985Z,95.00
2018-05-18T08:41:11.268Z,95.20
2018-05-18T08:43:39.518Z,96.80
2018-05-18T08:46:06.994Z,96.80
2018-05-18T08:48:37.744Z,95.20
2018-05-18T08:51:06.351Z,95.30
2018-05-18T08:53:33.879Z,95.30
2018-05-18T08:56:02.111Z,98.10
2018-05-18T08:58:29.559Z,98.10
2018-05-18T09:00:57.067Z,99.80
2018-05-18T09:03:25.760Z,99.90
2018-05-18T09:05:54.000Z,99.90
2018-05-18T09:08:22.043Z,99.70
2018-05-18T09:10:49.500Z,97.70
2018-05-18T09:13:16.948Z,98.90
2018-05-18T09:15:44.416Z,98.70
2018-05-18T09:18:11.920Z,99.20
2018-05-18T09:20:40.157Z,99.00
2018-05-18T09:23:07.668Z,98.80
2018-05-18T09:25:35.890Z,92.80
2018-05-18T09:28:03.483Z,92.60
2018-05-18T09:30:30.900Z,90.30
2018-05-18T09:32:58.397Z,85.80
2018-05-18T09:35:25.883Z,87.60
2018-05-18T09:37:54.565Z,91.00
2018-05-18T09:40:22.116Z,91.00
2018-05-18T09:42:50.633Z,93.20
2018-05-18T09:45:18.457Z,93.20
2018-05-18T09:47:47.962Z,92.40
2018-05-18T09:50:16.896Z,92.80
2018-05-18T09:52:44.453Z,92.70
2018-05-18T09:57:45.947Z,93.10
2018-05-18T10:00:16.099Z,91.00
2018-05-18T10:02:46.114Z,90.80
2018-05-18T10:05:14.336Z,92.20
2018-05-18T10:07:41.796Z,92.20
2018-05-18T10:10:09.859Z,93.40
2018-05-18T10:12:37.352Z,93.80
2018-05-18T10:15:05.531Z,94.90
2018-05-18T10:17:33.235Z,96.40
2018-05-18T10:20:01.900Z,95.40
2018-05-18T10:22:30.152Z,92.10
2018-05-18T10:24:57.699Z,92.00
2018-05-18T10:27:25.176Z,91.80
2018-05-18T10:29:52.743Z,91.50
2018-05-18T10:32:21.019Z,94.60
2018-05-18T10:34:48.942Z,94.70
2018-05-18T10:37:16.676Z,94.50
2018-05-18T10:39:45.027Z,96.30
2018-05-18T10:42:12.521Z,96.30
2018-05-18T10:44:40.056Z,96.90
2018-05-18T10:47:09.111Z,96.80
2018-05-18T10:49:36.563Z,96.90
2018-05-18T10:52:04.133Z,96.70
2018-05-18T10:54:31.592Z,97.70
2018-05-18T10:56:59.084Z,96.70
2018-05-18T10:59:27.320Z,96.40
2018-05-18T11:01:55.282Z,96.40
2018-05-18T11:04:22.747Z,98.10
2018-05-18T11:06:50.473Z,97.60
2018-05-18T11:09:17.956Z,95.80
2018-05-18T11:11:45.909Z,96.20
2018-05-18T11:14:13.721Z,97.30
2018-05-18T11:16:41.223Z,95.70
2018-05-18T11:19:09.823Z,95.40
2018-05-18T11:21:37.783Z,97.70
2018-05-18T11:24:05.679Z,97.10
2018-05-18T11:26:33.216Z,97.10
2018-05-18T11:29:00.789Z,95.40
2018-05-18T11:31:28.292Z,96.70
2018-05-18T11:33:56.565Z,95.20
2018-05-18T11:36:24.876Z,94.70
2018-05-18T11:38:52.413Z,94.60
2018-05-18T11:41:20.644Z,95.80
2018-05-18T11:43:48.104Z,95.70
2018-05-18T11:46:17.083Z,95.50
2018-05-18T11:48:44.592Z,95.50
2018-05-18T11:51:13.378Z,95.40
2018-05-18T11:53:41.722Z,96.40
2018-05-18T11:56:09.238Z,96.40
2018-05-18T11:58:36.700Z,96.40
2018-05-18T12:01:04.193Z,97.00
2018-05-18T12:03:31.675Z,95.70
2018-05-18T12:05:59.892Z,96.90
2018-05-18T12:08:27.598Z,96.90
2018-05-18T12:10:56.580Z,96.80
2018-05-18T12:13:24.870Z,96.70
2018-05-18T12:15:52.511Z,96.40
2018-05-18T12:18:19.980Z,96.50
2018-05-18T12:20:48.259Z,96.20
2018-05-18T12:23:15.864Z,96.10
2018-05-18T12:25:43.413Z,96.50
2018-05-18T12:28:14.631Z,95.90
2018-05-18T12:30:42.341Z,95.90
2018-05-18T12:33:09.861Z,96.20
2018-05-18T12:35:38.112Z,97.40
2018-05-18T12:38:05.629Z,97.30
2018-05-18T12:40:34.373Z,98.90
2018-05-18T12:43:02.731Z,99.90
2018-05-18T12:45:30.215Z,99.80
2018-05-18T12:47:58.228Z,99.40
2018-05-18T12:50:25.889Z,98.40
2018-05-18T12:52:53.404Z,96.30
2018-05-18T12:55:20.892Z,96.60
2018-05-18T12:57:48.355Z,96.90
2018-05-18T13:00:15.872Z,96.50
2018-05-18T13:02:43.437Z,96.70
2018-05-18T13:05:11.707Z,95.50
2018-05-18T13:07:40.676Z,95.60
2018-05-18T13:10:08.175Z,95.60
2018-05-18T13:12:36.886Z,98.20
2018-05-18T13:15:04.384Z,98.20
2018-05-18T13:17:31.881Z,97.20
2018-05-18T13:19:59.575Z,96.10
2018-05-18T13:22:27.027Z,96.10
2018-05-18T13:24:54.525Z,96.30
2018-05-18T13:27:22.176Z,96.20
2018-05-18T13:29:50.021Z,96.00
2018-05-18T13:32:19.416Z,96.00
2018-05-18T13:34:47.553Z,97.20
2018-05-18T13:37:16.076Z,97.70
2018-05-18T13:39:43.638Z,97.70
2018-05-18T13:42:11.092Z,96.40
2018-05-18T13:44:38.655Z,97.20
2018-05-18T13:47:06.128Z,97.10
2018-05-18T13:49:33.588Z,97.00
2018-05-18T13:52:01.124Z,96.00
2018-05-18T13:54:28.648Z,96.00
2018-05-18T13:56:57.943Z,94.70
2018-05-18T13:59:27.976Z,94.80
2018-05-18T14:01:55.603Z,94.70
2018-05-18T14:04:23.187Z,94.30
2018-05-18T14:06:51.465Z,94.10
2018-05-18T14:09:19.737Z,94.40
2018-05-18T14:11:47.990Z,93.90
2018-05-18T14:14:16.295Z,93.80
2018-05-18T14:16:44.609Z,93.20
2018-05-18T14:19:12.123Z,93.20
2018-05-18T14:21:39.595Z,93.60
2018-05-18T14:24:07.096Z,93.50
2018-05-18T14:26:34.700Z,93.50
2018-05-18T14:29:03.320Z,92.20
2018-05-18T14:31:30.823Z,92.10
2018-05-18T14:33:58.390Z,92.40
2018-05-18T14:36:26.639Z,91.90
2018-05-18T14:38:54.107Z,91.90
2018-05-18T14:41:21.575Z,91.60
2018-05-18T14:43:49.568Z,91.40
2018-05-18T14:46:17.815Z,91.00
2018-05-18T14:48:45.376Z,91.00
2018-05-18T14:51:13.404Z,91.00
2018-05-18T14:53:41.361Z,91.10
2018-05-18T14:56:08.920Z,87.50
2018-05-18T14:58:36.517Z,86.60
2018-05-18T15:01:04.682Z,88.70
2018-05-18T15:03:32.433Z,88.70
2018-05-18T15:05:59.926Z,87.90
2018-05-18T15:08:27.450Z,87.30
2018-05-18T15:10:54.991Z,87.10
2018-05-18T15:13:22.483Z,87.10
2018-05-18T15:15:49.953Z,84.30
2018-05-18T15:18:17.481Z,84.90
2018-05-18T15:20:44.935Z,84.60
2018-05-18T15:23:13.161Z,83.10
2018-05-18T15:25:41.404Z,84.80
2018-05-18T15:28:08.872Z,84.90
2018-05-18T15:30:36.727Z,85.00
2018-05-18T15:33:04.940Z,84.20
2018-05-18T15:35:33.192Z,83.00
2018-05-18T15:38:00.644Z,83.00
2018-05-18T15:40:28.943Z,81.20
2018-05-18T15:42:57.620Z,81.40
2018-05-18T15:45:25.073Z,81.40
2018-05-18T15:47:52.635Z,81.50
2018-05-18T15:50:20.178Z,82.40
2018-05-18T15:52:47.622Z,82.40
2018-05-18T15:55:15.079Z,82.60
2018-05-18T15:57:42.579Z,83.50
2018-05-18T16:00:10.822Z,81.10
2018-05-18T16:02:38.882Z,81.10
2018-05-18T16:05:06.411Z,80.10
2018-05-18T16:07:34.488Z,79.30
2018-05-18T16:10:01.975Z,77.70
2018-05-18T16:12:29.466Z,75.10
2018-05-18T16:14:57.741Z,77.40
2018-05-18T16:17:26.007Z,79.90
2018-05-18T16:19:53.483Z,79.80
2018-05-18T16:22:21.724Z,83.40
2018-05-18T16:24:49.464Z,83.30
2018-05-18T16:27:17.073Z,85.30
2018-05-18T16:29:45.304Z,85.10
2018-05-18T16:32:12.784Z,84.90
2018-05-18T16:34:41.059Z,83.70
2018-05-18T16:37:08.541Z,83.70
2018-05-18T16:39:36.799Z,82.60
2018-05-18T16:42:04.369Z,82.60
2018-05-18T16:44:31.820Z,83.20
2018-05-18T16:47:00.052Z,82.90
2018-05-18T16:49:27.536Z,82.40
2018-05-18T16:51:55.120Z,82.10
2018-05-18T16:54:23.367Z,84.20
2018-05-18T16:56:50.856Z,84.20
2018-05-18T16:59:19.077Z,85.40
2018-05-18T17:01:46.575Z,85.30
2018-05-18T17:04:14.026Z,85.30
2018-05-18T17:06:42.093Z,86.90
2018-05-18T17:09:09.553Z,87.20
2018-05-18T17:11:37.072Z,88.40
2018-05-18T17:14:04.548Z,90.20
2018-05-18T17:16:32.584Z,90.90
2018-05-18T17:19:00.079Z,91.00
2018-05-18T17:21:27.534Z,91.20
2018-05-18T17:23:55.019Z,91.10
2018-05-18T17:26:22.504Z,91.40
2018-05-18T17:28:51.113Z,93.50
2018-05-18T17:31:18.572Z,93.50
2018-05-18T17:33:46.029Z,94.90
2018-05-18T17:36:13.534Z,95.90
2018-05-18T17:38:41.027Z,97.70
2018-05-18T17:41:08.553Z,99.20
2018-05-18T17:43:36.396Z,99.90
2018-05-18T17:46:04.178Z,99.90
2018-05-18T17:48:31.663Z,99.90
2018-05-18T17:51:00.357Z,99.90
2018-05-18T17:53:27.849Z,99.90
2018-05-18T17:55:55.319Z,99.90
2018-05-18T17:58:22.851Z,99.90
2018-05-18T18:00:50.712Z,99.90
2018-05-18T18:03:18.753Z,99.90
2018-05-18T18:05:47.057Z,99.90
2018-05-18T18:08:14.570Z,99.90
2018-05-18T18:10:42.424Z,99.90
2018-05-18T18:13:09.903Z,99.90
2018-05-18T18:15:38.173Z,99.90
2018-05-18T18:18:05.612Z,99.90
2018-05-18T18:20:33.103Z,99.90
2018-05-18T18:23:01.332Z,99.90
2018-05-18T18:25:28.789Z,99.90
2018-05-18T18:27:56.238Z,99.90
2018-05-18T18:30:24.246Z,99.90
2018-05-18T18:32:51.704Z,99.90
2018-05-18T18:35:20.504Z,99.90
2018-05-18T18:37:48.788Z,99.90
2018-05-18T18:40:17.023Z,99.90
2018-05-18T18:42:44.928Z,99.90
2018-05-18T18:45:13.641Z,99.90
2018-05-18T18:47:41.092Z,99.90
2018-05-18T18:50:08.579Z,99.90
2018-05-18T18:52:36.064Z,99.90
2018-05-18T18:55:03.522Z,99.90
2018-05-18T18:57:31.005Z,99.90
2018-05-18T18:59:59.236Z,99.90
2018-05-18T19:02:26.734Z,99.90
2018-05-18T19:04:55.117Z,99.90
2018-05-18T19:07:22.605Z,99.90
2018-05-18T19:09:50.056Z,99.90
2018-05-18T19:12:17.533Z,99.90
2018-05-18T19:14:44.989Z,99.90
2018-05-18T19:17:12.915Z,99.90
2018-05-18T19:19:40.369Z,99.90
2018-05-18T19:22:08.616Z,99.90
2018-05-18T19:24:36.622Z,99.90
2018-05-18T19:27:04.103Z,99.90
2018-05-18T19:29:31.583Z,99.90
2018-05-18T19:31:59.065Z,99.90
2018-05-18T19:34:26.561Z,99.90
2018-05-18T19:36:54.055Z,99.90
2018-05-18T19:39:21.521Z,99.90
2018-05-18T19:41:48.976Z,99.90
2018-05-18T19:44:17.030Z,99.90
2018-05-18T19:46:44.492Z,99.90
2018-05-18T19:49:11.974Z,99.90
2018-05-18T19:51:39.424Z,99.90
2018-05-18T19:54:06.898Z,99.90
2018-05-18T19:56:34.397Z,99.90
2018-05-18T19:59:01.884Z,99.90
2018-05-18T20:01:29.377Z,99.90
2018-05-18T20:03:57.592Z,99.90
2018-05-18T20:06:25.643Z,99.90
2018-05-18T20:08:53.253Z,99.90
2018-05-18T20:11:20.758Z,99.90
2018-05-18T20:13:49.068Z,99.90
2018-05-18T20:16:16.524Z,99.90
2018-05-18T20:18:44.078Z,99.90
2018-05-18T20:21:11.604Z,99.90
2018-05-18T20:23:39.181Z,99.90
2018-05-18T20:26:06.626Z,99.90
2018-05-18T20:28:34.138Z,99.90
2018-05-18T20:31:01.621Z,99.90
2018-05-18T20:33:29.839Z,99.90
2018-05-18T20:35:57.463Z,99.90
2018-05-18T20:38:25.054Z,99.90
2018-05-18T20:40:52.532Z,99.90
2018-05-18T20:43:20.013Z,99.90
2018-05-18T20:45:47.459Z,99.90
2018-05-18T20:48:15.116Z,99.90
2018-05-18T20:50:42.576Z,99.90
2018-05-18T20:53:10.058Z,99.90
2018-05-18T20:55:37.528Z,99.90
2018-05-18T20:58:06.208Z,99.90
2018-05-18T21:00:34.472Z,99.90
2018-05-18T21:03:01.928Z,99.90
2018-05-18T21:05:29.568Z,99.90
2018-05-18T21:07:57.100Z,99.90
2018-05-18T21:10:24.557Z,99.90
2018-05-18T21:12:52.012Z,99.90
2018-05-18T21:15:19.468Z,99.90
2018-05-18T21:17:47.218Z,99.90
2018-05-18T21:20:14.700Z,99.90
2018-05-18T21:22:42.176Z,99.90
2018-05-18T21:25:09.662Z,99.90
2018-05-18T21:27:37.331Z,99.90
2018-05-18T21:30:07.010Z,99.90
2018-05-18T21:32:34.461Z,99.90
2018-05-18T21:35:01.941Z,99.90
2018-05-18T21:37:30.017Z,99.90
2018-05-18T21:39:58.864Z,99.90
2018-05-18T21:42:26.345Z,99.90
2018-05-18T21:44:53.796Z,99.90
2018-05-18T21:47:21.262Z,99.90
2018-05-18T21:49:48.743Z,99.90
2018-05-18T21:52:16.970Z,99.90
2018-05-18T21:54:44.467Z,99.90
2018-05-18T21:57:11.917Z,99.90
2018-05-18T21:59:39.393Z,99.90
2018-05-18T22:02:07.644Z,99.90
2018-05-18T22:04:35.092Z,99.90
2018-05-18T22:07:02.585Z,99.90
2018-05-18T22:09:30.836Z,99.90
2018-05-18T22:11:58.368Z,99.90
2018-05-18T22:14:26.147Z,99.90
2018-05-18T22:16:53.599Z,99.90
2018-05-18T22:19:23.866Z,99.90
2018-05-18T22:21:52.092Z,99.90
2018-05-18T22:24:19.580Z,99.90
2018-05-18T22:26:47.052Z,99.90
2018-05-18T22:29:16.628Z,99.90
2018-05-18T22:31:44.108Z,99.90
2018-05-18T22:34:11.685Z,99.90
2018-05-18T22:36:40.519Z,99.90
2018-05-18T22:39:07.996Z,99.90
2018-05-18T22:41:35.497Z,99.90
2018-05-18T22:44:02.987Z,99.90
2018-05-18T22:46:30.490Z,99.90
2018-05-18T22:48:58.713Z,99.90
2018-05-18T22:51:26.203Z,99.90
2018-05-18T22:53:53.678Z,99.90
2018-05-18T22:56:21.140Z,99.90
2018-05-18T22:58:49.397Z,99.90
2018-05-18T23:01:16.875Z,99.90
2018-05-18T23:03:45.122Z,99.90
2018-05-18T23:06:12.615Z,99.90
2018-05-18T23:08:40.831Z,99.90
2018-05-18T23:11:08.317Z,99.90
2018-05-18T23:13:35.767Z,99.90
2018-05-18T23:16:03.251Z,99.90
2018-05-18T23:18:31.480Z,99.90
2018-05-18T23:20:58.940Z,99.90
2018-05-18T23:23:26.403Z,99.90
2018-05-18T23:25:53.868Z,99.90
2018-05-18T23:28:21.338Z,99.90
2018-05-18T23:33:24.243Z,99.90
2018-05-18T23:35:51.714Z,99.90
2018-05-18T23:38:19.940Z,99.90
2018-05-18T23:40:47.422Z,99.90
2018-05-18T23:43:16.247Z,99.90
2018-05-18T23:45:45.029Z,99.90
2018-05-18T23:48:13.252Z,99.90
2018-05-18T23:50:40.744Z,99.90
2018-05-18T23:53:08.199Z,99.90
2018-05-18T23:55:35.653Z,99.90
2018-05-18T23:58:03.148Z,99.90
